Bierbeek, Belgium
Current Conditions -  °F | °C
As of 2:25 AM on Wednesday 26 Nov 2014 (Local Time) from EBBE Reporting Station
Scattered Clouds Scattered Clouds  
Wind Chill:   Ceiling: Unl
Heat Index:   Visibility: 6mi
Dew Point:   Wind: 6mph
Humidity: 93%   Direction: 80°E
Pressure: 30"   Gusts: NA
Location:  50.83°N, 4.76°E
Report Text: EBBE 260125Z AUTO 08005KT 9999 FEW090/// SCT100/// 04/03 Q1016 BLU
Loading
Personal Weather Stations






























Interactive Weather Map New forecast layout! Learn more

10-Day Weather Forecast

Advertisements
Track Severe Weather on mobile